createdAt,value
2018-04-22T00:00:08.203Z,9.75
2018-04-22T00:02:35.204Z,9.69
2018-04-22T00:05:02.076Z,9.71
2018-04-22T00:07:28.948Z,9.67
2018-04-22T00:09:55.878Z,9.58
2018-04-22T00:12:22.750Z,9.56
2018-04-22T00:14:49.620Z,9.62
2018-04-22T00:17:16.537Z,9.61
2018-04-22T00:19:43.474Z,9.54
2018-04-22T00:22:10.537Z,9.47
2018-04-22T00:24:37.455Z,9.48
2018-04-22T00:27:04.356Z,9.50
2018-04-22T00:29:31.281Z,9.56
2018-04-22T00:31:58.151Z,9.44
2018-04-22T00:34:25.215Z,9.37
2018-04-22T00:36:52.825Z,9.33
2018-04-22T00:39:19.693Z,9.30
2018-04-22T00:41:47.399Z,9.21
2018-04-22T00:44:14.304Z,9.14
2018-04-22T00:46:41.224Z,9.19
2018-04-22T00:49:08.085Z,9.28
2018-04-22T00:51:35.181Z,9.38
2018-04-22T00:54:20.252Z,9.37
2018-04-22T00:56:47.968Z,9.28
2018-04-22T00:59:14.947Z,9.16
2018-04-22T01:01:41.886Z,9.09
2018-04-22T01:04:08.900Z,9.04
2018-04-22T01:06:35.779Z,9.00
2018-04-22T01:09:02.840Z,8.99
2018-04-22T01:11:29.751Z,9.00
2018-04-22T01:13:56.612Z,8.93
2018-04-22T01:16:23.525Z,8.97
2018-04-22T01:18:50.454Z,8.91
2018-04-22T01:21:17.328Z,8.90
2018-04-22T01:23:44.240Z,8.88
2018-04-22T01:26:11.191Z,8.90
2018-04-22T01:28:38.109Z,8.79
2018-04-22T01:31:04.992Z,8.86
2018-04-22T01:33:31.987Z,8.74
2018-04-22T01:35:58.854Z,8.84
2018-04-22T01:38:26.470Z,8.80
2018-04-22T01:40:53.798Z,8.74
2018-04-22T01:43:20.741Z,8.87
2018-04-22T01:45:47.627Z,8.80
2018-04-22T01:48:14.540Z,8.79
2018-04-22T01:50:41.458Z,8.73
2018-04-22T01:53:09.246Z,8.77
2018-04-22T01:55:36.225Z,8.41
2018-04-22T01:58:03.180Z,8.42
2018-04-22T02:00:30.136Z,8.56
2018-04-22T02:02:57.061Z,8.57
2018-04-22T02:05:23.972Z,8.53
2018-04-22T02:07:50.932Z,8.42
2018-04-22T02:10:17.910Z,8.50
2018-04-22T02:12:44.801Z,8.55
2018-04-22T02:15:12.465Z,8.51
2018-04-22T02:17:40.129Z,8.51
2018-04-22T02:20:07.748Z,8.47
2018-04-22T02:22:35.746Z,8.53
2018-04-22T02:25:03.399Z,8.66
2018-04-22T02:27:30.276Z,8.70
2018-04-22T02:29:57.217Z,8.77
2018-04-22T02:32:24.812Z,8.77
2018-04-22T02:34:51.689Z,8.52
2018-04-22T02:37:18.668Z,8.63
2018-04-22T02:39:46.335Z,8.60
2018-04-22T02:42:14.060Z,8.54
2018-04-22T02:44:46.866Z,8.62
2018-04-22T02:47:14.585Z,8.72
2018-04-22T02:49:41.451Z,8.66
2018-04-22T02:52:08.444Z,8.63
2018-04-22T02:54:35.372Z,8.60
2018-04-22T02:57:02.345Z,8.63
2018-04-22T02:59:30.038Z,8.51
2018-04-22T03:01:56.964Z,8.59
2018-04-22T03:04:23.857Z,8.46
2018-04-22T03:06:51.129Z,8.22
2018-04-22T03:09:18.795Z,8.19
2018-04-22T03:11:46.480Z,8.16
2018-04-22T03:14:13.389Z,8.24
2018-04-22T03:16:40.265Z,8.45
2018-04-22T03:19:07.910Z,8.31
2018-04-22T03:21:35.529Z,8.39
2018-04-22T03:24:02.446Z,8.36
2018-04-22T03:26:29.359Z,8.34
2018-04-22T03:28:56.264Z,8.36
2018-04-22T03:31:23.192Z,8.33
2018-04-22T03:33:50.177Z,8.35
2018-04-22T03:36:17.127Z,8.45
2018-04-22T03:38:44.056Z,8.15
2018-04-22T03:41:10.928Z,8.09
2018-04-22T03:43:37.804Z,8.01
2018-04-22T03:46:04.748Z,7.96
2018-04-22T03:48:31.675Z,7.72
2018-04-22T03:50:58.598Z,7.70
2018-04-22T03:53:25.557Z,7.88
2018-04-22T03:55:52.424Z,7.91
2018-04-22T03:58:20.441Z,7.94
2018-04-22T04:00:48.149Z,7.83
2018-04-22T04:03:15.769Z,7.90
2018-04-22T04:05:42.692Z,8.00
2018-04-22T04:08:09.582Z,7.98
2018-04-22T04:10:36.529Z,7.64
2018-04-22T04:13:03.405Z,7.85
2018-04-22T04:15:31.063Z,7.86
2018-04-22T04:21:34.487Z,7.76
2018-04-22T04:27:44.461Z,7.71
2018-04-22T04:30:12.131Z,7.89
2018-04-22T04:32:39.745Z,8.02
2018-04-22T04:35:06.934Z,8.06
2018-04-22T04:37:33.847Z,8.10
2018-04-22T04:40:00.718Z,8.19
2018-04-22T04:42:27.627Z,8.14
2018-04-22T04:44:54.495Z,8.07
2018-04-22T04:47:21.446Z,8.26
2018-04-22T04:49:48.323Z,8.34
2018-04-22T04:52:15.926Z,8.46
2018-04-22T04:54:42.900Z,8.33
2018-04-22T04:57:09.859Z,8.22
2018-04-22T04:59:37.579Z,8.31
2018-04-22T05:02:04.451Z,8.37
2018-04-22T05:04:31.410Z,8.48
2018-04-22T05:06:58.278Z,8.60
2018-04-22T05:09:25.871Z,8.72
2018-04-22T05:11:52.792Z,8.81
2018-04-22T05:14:20.395Z,8.94
2018-04-22T05:16:47.400Z,9.08
2018-04-22T05:19:15.003Z,9.13
2018-04-22T05:21:41.941Z,9.26
2018-04-22T05:24:08.895Z,9.12
2018-04-22T05:26:35.865Z,9.34
2018-04-22T05:29:02.751Z,9.47
2018-04-22T05:31:29.716Z,9.63
2018-04-22T05:33:56.869Z,9.78
2018-04-22T05:36:23.846Z,10.10
2018-04-22T05:38:50.708Z,10.42
2018-04-22T05:41:17.582Z,10.33
2018-04-22T05:43:45.306Z,10.89
2018-04-22T05:46:13.012Z,10.55
2018-04-22T05:48:40.618Z,10.57
2018-04-22T05:51:07.568Z,10.12
2018-04-22T05:53:34.475Z,10.02
2018-04-22T05:56:01.455Z,10.52
2018-04-22T05:58:28.376Z,10.73
2018-04-22T06:00:55.459Z,10.71
2018-04-22T06:03:22.418Z,10.59
2018-04-22T06:05:49.309Z,11.55
2018-04-22T06:08:16.284Z,12.17
2018-04-22T06:10:43.159Z,12.54
2018-04-22T06:13:10.043Z,12.68
2018-04-22T06:15:37.983Z,12.89
2018-04-22T06:18:04.855Z,12.45
2018-04-22T06:20:32.457Z,11.70
2018-04-22T06:22:59.379Z,12.12
2018-04-22T06:25:26.244Z,12.12
2018-04-22T06:27:53.157Z,12.38
2018-04-22T06:30:20.824Z,12.74
2018-04-22T06:32:47.778Z,13.30
2018-04-22T06:35:14.637Z,13.04
2018-04-22T06:37:41.653Z,13.85
2018-04-22T06:40:09.263Z,14.26
2018-04-22T06:42:36.199Z,14.64
2018-04-22T06:45:03.179Z,14.72
2018-04-22T06:47:30.087Z,14.63
2018-04-22T06:49:57.304Z,14.79
2018-04-22T06:52:24.971Z,15.11
2018-04-22T06:54:52.600Z,14.98
2018-04-22T06:57:19.525Z,14.78
2018-04-22T06:59:46.398Z,14.69
2018-04-22T07:02:13.669Z,13.71
2018-04-22T07:04:40.544Z,13.83
2018-04-22T07:07:07.406Z,13.33
2018-04-22T07:09:34.351Z,13.53
2018-04-22T07:12:01.313Z,13.83
2018-04-22T07:14:28.190Z,13.82
2018-04-22T07:16:55.102Z,14.35
2018-04-22T07:19:22.083Z,15.41
2018-04-22T07:21:49.746Z,15.08
2018-04-22T07:24:17.015Z,15.31
2018-04-22T07:26:44.632Z,14.77
2018-04-22T07:29:11.484Z,14.54
2018-04-22T07:31:38.434Z,15.56
2018-04-22T07:34:05.337Z,15.23
2018-04-22T07:36:32.274Z,14.90
2018-04-22T07:38:59.141Z,15.18
2018-04-22T07:41:26.052Z,15.61
2018-04-22T07:43:52.950Z,15.62
2018-04-22T07:46:19.914Z,16.23
2018-04-22T07:48:46.805Z,16.20
2018-04-22T07:51:14.036Z,15.98
2018-04-22T07:53:41.655Z,16.61
2018-04-22T07:56:08.543Z,16.59
2018-04-22T07:58:36.221Z,17.52
2018-04-22T08:01:03.189Z,16.71
2018-04-22T08:03:30.526Z,17.31
2018-04-22T08:05:57.393Z,16.87
2018-04-22T08:08:24.371Z,17.20
2018-04-22T08:10:51.358Z,17.07
2018-04-22T08:13:18.956Z,17.82
2018-04-22T08:15:45.944Z,17.98
2018-04-22T08:18:12.852Z,17.47
2018-04-22T08:20:39.831Z,17.41
2018-04-22T08:23:06.798Z,18.03
2018-04-22T08:25:34.454Z,18.05
2018-04-22T08:28:01.323Z,17.84
2018-04-22T08:30:28.207Z,18.25
2018-04-22T08:32:55.523Z,17.48
2018-04-22T08:35:22.431Z,18.56
2018-04-22T08:37:49.923Z,17.40
2018-04-22T08:40:16.925Z,18.12
2018-04-22T08:42:43.861Z,18.94
2018-04-22T08:45:11.063Z,19.48
2018-04-22T08:47:38.846Z,19.32
2018-04-22T08:50:05.776Z,19.27
2018-04-22T08:52:33.432Z,19.60
2018-04-22T08:55:01.057Z,18.76
2018-04-22T08:57:28.053Z,18.43
2018-04-22T08:59:55.770Z,19.74
2018-04-22T09:02:22.824Z,19.50
2018-04-22T09:04:49.712Z,19.45
2018-04-22T09:07:17.320Z,19.64
2018-04-22T09:09:44.243Z,20.31
2018-04-22T09:12:11.114Z,20.38
2018-04-22T09:14:38.029Z,19.80
2018-04-22T09:17:04.902Z,19.25
2018-04-22T09:19:32.098Z,19.30
2018-04-22T09:21:59.728Z,18.95
2018-04-22T09:24:26.664Z,18.42
2018-04-22T09:26:53.676Z,18.36
2018-04-22T09:29:20.892Z,18.68
2018-04-22T09:31:47.844Z,19.14
2018-04-22T09:34:15.525Z,19.90
2018-04-22T09:36:42.518Z,20.52
2018-04-22T09:39:09.385Z,20.30
2018-04-22T09:41:36.296Z,20.38
2018-04-22T09:44:03.211Z,20.59
2018-04-22T09:46:30.888Z,20.44
2018-04-22T09:48:57.871Z,20.22
2018-04-22T09:51:24.765Z,19.85
2018-04-22T09:53:52.438Z,20.16
2018-04-22T09:56:19.355Z,20.04
2018-04-22T09:58:46.269Z,19.68
2018-04-22T10:01:19.053Z,19.62
2018-04-22T10:03:46.306Z,19.93
2018-04-22T10:06:13.189Z,19.35
2018-04-22T10:08:40.921Z,19.57
2018-04-22T10:11:07.780Z,19.56
2018-04-22T10:13:34.745Z,19.63
2018-04-22T10:16:02.361Z,19.61
2018-04-22T10:18:29.240Z,20.09
2018-04-22T10:20:56.172Z,20.31
2018-04-22T10:23:23.460Z,20.82
2018-04-22T10:25:51.142Z,20.82
2018-04-22T10:28:18.001Z,21.35
2018-04-22T10:30:44.917Z,21.21
2018-04-22T10:33:12.540Z,21.57
2018-04-22T10:35:39.713Z,21.64
2018-04-22T10:38:07.320Z,21.82
2018-04-22T10:40:34.184Z,21.38
2018-04-22T10:43:01.100Z,21.38
2018-04-22T10:45:27.971Z,21.47
2018-04-22T10:47:54.875Z,21.63
2018-04-22T10:50:22.537Z,21.27
2018-04-22T10:52:50.145Z,21.43
2018-04-22T10:55:17.545Z,21.31
2018-04-22T10:57:45.151Z,21.75
2018-04-22T11:00:12.020Z,22.08
2018-04-22T11:02:38.919Z,22.63
2018-04-22T11:05:05.896Z,22.18
2018-04-22T11:07:32.738Z,22.58
2018-04-22T11:09:59.701Z,22.23
2018-04-22T11:12:26.572Z,22.48
2018-04-22T11:14:53.728Z,22.01
2018-04-22T11:17:20.662Z,22.11
2018-04-22T11:19:47.533Z,22.26
2018-04-22T11:22:15.176Z,22.62
2018-04-22T11:24:42.049Z,22.79
2018-04-22T11:27:09.328Z,22.60
2018-04-22T11:29:36.188Z,22.30
2018-04-22T11:32:03.141Z,22.70
2018-04-22T11:34:30.054Z,22.70
2018-04-22T11:36:57.011Z,22.18
2018-04-22T11:39:23.891Z,22.25
2018-04-22T11:41:50.785Z,22.15
2018-04-22T11:44:17.779Z,22.38
2018-04-22T11:46:44.685Z,22.77
2018-04-22T11:49:11.543Z,22.74
2018-04-22T11:51:38.474Z,23.11
2018-04-22T11:54:05.354Z,23.04
2018-04-22T11:56:33.051Z,23.31
2018-04-22T11:59:00.767Z,23.32
2018-04-22T12:01:28.771Z,23.19
2018-04-22T12:03:55.697Z,22.99
2018-04-22T12:06:22.633Z,23.14
2018-04-22T12:08:49.526Z,23.00
2018-04-22T12:11:17.134Z,22.86
2018-04-22T12:13:44.059Z,22.87
2018-04-22T12:16:10.945Z,22.83
2018-04-22T12:18:37.929Z,23.03
2018-04-22T12:21:05.554Z,23.08
2018-04-22T12:23:33.558Z,23.06
2018-04-22T12:26:00.465Z,23.01
2018-04-22T12:28:27.329Z,22.99
2018-04-22T12:30:54.275Z,23.40
2018-04-22T12:33:21.143Z,23.38
2018-04-22T12:35:48.802Z,23.06
2018-04-22T12:38:16.400Z,23.15
2018-04-22T12:40:43.335Z,23.21
2018-04-22T12:43:10.273Z,23.50
2018-04-22T12:45:37.201Z,23.51
2018-04-22T12:48:04.869Z,23.52
2018-04-22T12:50:32.490Z,23.57
2018-04-22T12:53:00.194Z,23.67
2018-04-22T12:55:27.793Z,23.37
2018-04-22T12:57:54.712Z,23.31
2018-04-22T13:00:22.365Z,23.66
2018-04-22T13:02:50.109Z,23.66
2018-04-22T13:05:16.982Z,24.05
2018-04-22T13:07:44.680Z,23.97
2018-04-22T13:10:11.588Z,24.04
2018-04-22T13:12:39.191Z,24.01
2018-04-22T13:15:06.543Z,24.17
2018-04-22T13:17:33.462Z,23.95
2018-04-22T13:20:00.329Z,24.08
2018-04-22T13:22:27.266Z,24.24
2018-04-22T13:24:54.124Z,24.21
2018-04-22T13:27:21.092Z,24.10
2018-04-22T13:29:48.016Z,24.50
2018-04-22T13:32:14.965Z,24.46
2018-04-22T13:34:41.937Z,24.55
2018-04-22T13:37:08.921Z,24.66
2018-04-22T13:39:36.523Z,24.95
2018-04-22T13:42:03.654Z,24.48
2018-04-22T13:44:30.581Z,24.46
2018-04-22T13:46:58.594Z,24.44
2018-04-22T13:49:25.489Z,24.38
2018-04-22T13:51:52.346Z,24.65
2018-04-22T13:54:20.132Z,24.93
2018-04-22T13:56:47.200Z,24.94
2018-04-22T13:59:14.112Z,24.75
2018-04-22T14:01:41.082Z,24.77
2018-04-22T14:04:08.053Z,24.59
2018-04-22T14:06:34.978Z,24.98
2018-04-22T14:09:02.336Z,25.15
2018-04-22T14:11:29.194Z,25.15
2018-04-22T14:13:56.065Z,24.98
2018-04-22T14:16:23.060Z,25.13
2018-04-22T14:18:49.920Z,25.00
2018-04-22T14:21:17.169Z,25.08
2018-04-22T14:23:44.023Z,25.08
2018-04-22T14:26:10.903Z,25.20
2018-04-22T14:28:38.570Z,25.08
2018-04-22T14:31:06.165Z,24.95
2018-04-22T14:33:33.027Z,25.13
2018-04-22T14:36:00.062Z,25.30
2018-04-22T14:38:27.045Z,25.44
2018-04-22T14:40:53.934Z,25.27
2018-04-22T14:43:21.147Z,25.44
2018-04-22T14:46:06.475Z,25.41
2018-04-22T14:48:52.042Z,25.17
2018-04-22T14:51:19.702Z,25.46
2018-04-22T14:53:47.307Z,25.35
2018-04-22T14:56:15.277Z,25.66
2018-04-22T14:58:42.159Z,25.36
2018-04-22T15:01:09.096Z,25.41
2018-04-22T15:03:36.034Z,25.27
2018-04-22T15:06:03.013Z,25.34
2018-04-22T15:08:29.976Z,25.53
2018-04-22T15:10:57.091Z,25.39
2018-04-22T15:13:23.978Z,24.96
2018-04-22T15:15:50.856Z,25.31
2018-04-22T15:18:17.776Z,25.23
2018-04-22T15:20:44.700Z,25.14
2018-04-22T15:23:12.414Z,24.94
2018-04-22T15:25:39.279Z,25.13
2018-04-22T15:28:06.605Z,25.13
2018-04-22T15:30:33.493Z,25.04
2018-04-22T15:33:02.045Z,25.25
2018-04-22T15:35:29.024Z,25.12
2018-04-22T15:37:55.990Z,25.25
2018-04-22T15:40:23.598Z,25.38
2018-04-22T15:42:50.464Z,25.34
2018-04-22T15:45:17.380Z,25.39
2018-04-22T15:47:44.289Z,25.29
2018-04-22T15:50:11.957Z,25.38
2018-04-22T15:52:38.865Z,25.08
2018-04-22T15:55:05.809Z,25.21
2018-04-22T15:57:32.740Z,25.36
2018-04-22T15:59:59.661Z,25.43
2018-04-22T16:02:26.629Z,25.29
2018-04-22T16:04:53.546Z,25.43
2018-04-22T16:07:20.434Z,25.13
2018-04-22T16:09:47.344Z,25.15
2018-04-22T16:12:14.276Z,25.03
2018-04-22T16:14:47.295Z,25.01
2018-04-22T16:17:14.251Z,25.08
2018-04-22T16:19:41.180Z,25.07
2018-04-22T16:22:08.092Z,25.00
2018-04-22T16:24:34.947Z,25.10
2018-04-22T16:27:01.811Z,24.93
2018-04-22T16:29:28.732Z,24.98
2018-04-22T16:31:55.744Z,24.90
2018-04-22T16:34:22.610Z,24.64
2018-04-22T16:36:50.275Z,24.71
2018-04-22T16:39:17.883Z,24.72
2018-04-22T16:41:44.828Z,24.63
2018-04-22T16:44:11.804Z,24.49
2018-04-22T16:46:38.667Z,24.46
2018-04-22T16:49:06.346Z,24.50
2018-04-22T16:51:34.005Z,24.58
2018-04-22T16:54:01.611Z,24.49
2018-04-22T16:56:28.520Z,24.47
2018-04-22T16:58:55.393Z,24.37
2018-04-22T17:01:22.354Z,24.18
2018-04-22T17:03:49.249Z,24.12
2018-04-22T17:06:16.917Z,23.96
2018-04-22T17:08:44.526Z,23.72
2018-04-22T17:11:11.429Z,23.59
2018-04-22T17:13:38.352Z,23.43
2018-04-22T17:16:06.023Z,23.38
2018-04-22T17:18:33.684Z,23.35
2018-04-22T17:21:01.333Z,23.30
2018-04-22T17:23:28.289Z,23.19
2018-04-22T17:25:55.291Z,23.22
2018-04-22T17:28:22.163Z,23.21
2018-04-22T17:30:49.085Z,23.14
2018-04-22T17:33:15.935Z,23.16
2018-04-22T17:35:42.900Z,23.08
2018-04-22T17:38:09.813Z,22.95
2018-04-22T17:40:36.723Z,22.86
2018-04-22T17:43:04.392Z,22.91
2018-04-22T17:45:31.306Z,22.75
2018-04-22T17:47:58.507Z,22.66
2018-04-22T17:50:25.407Z,22.55
2018-04-22T17:52:52.287Z,22.46
2018-04-22T17:55:19.214Z,22.37
2018-04-22T17:57:46.083Z,22.21
2018-04-22T18:00:13.025Z,22.21
2018-04-22T18:02:40.002Z,22.14
2018-04-22T18:05:06.976Z,22.06
2018-04-22T18:07:33.839Z,22.04
2018-04-22T18:10:00.847Z,21.98
2018-04-22T18:12:27.732Z,21.91
2018-04-22T18:14:54.684Z,21.81
2018-04-22T18:17:21.643Z,21.79
2018-04-22T18:19:48.558Z,21.71
2018-04-22T18:22:15.517Z,21.67
2018-04-22T18:24:42.425Z,21.62
2018-04-22T18:27:09.302Z,21.50
2018-04-22T18:29:36.205Z,21.45
2018-04-22T18:32:03.084Z,21.46
2018-04-22T18:34:30.051Z,21.41
2018-04-22T18:36:57.764Z,21.32
2018-04-22T18:39:24.686Z,21.36
2018-04-22T18:41:51.584Z,21.22
2018-04-22T18:44:18.497Z,21.20
2018-04-22T18:46:45.377Z,21.08
2018-04-22T18:49:12.319Z,21.04
2018-04-22T18:51:39.192Z,21.12
2018-04-22T18:54:06.828Z,21.11
2018-04-22T18:56:33.764Z,21.08
2018-04-22T18:59:00.772Z,21.08
2018-04-22T19:01:27.645Z,21.04
2018-04-22T19:03:55.305Z,21.05
2018-04-22T19:06:22.964Z,20.94
2018-04-22T19:08:49.869Z,20.96
2018-04-22T19:11:16.762Z,20.86
2018-04-22T19:13:43.728Z,20.85
2018-04-22T19:16:10.721Z,20.78
2018-04-22T19:18:37.588Z,20.80
2018-04-22T19:21:04.556Z,20.70
2018-04-22T19:23:31.460Z,20.65
2018-04-22T19:25:58.434Z,20.68
2018-04-22T19:28:25.348Z,20.72
2018-04-22T19:30:52.324Z,20.74
2018-04-22T19:33:19.193Z,20.69
2018-04-22T19:35:46.107Z,20.78
2018-04-22T19:38:13.004Z,20.95
2018-04-22T19:40:39.906Z,20.90
2018-04-22T19:43:06.784Z,21.28
2018-04-22T19:45:33.835Z,21.38
2018-04-22T19:48:00.706Z,21.58
2018-04-22T19:50:28.628Z,21.14
2018-04-22T19:52:55.500Z,20.27
2018-04-22T19:55:23.106Z,19.64
2018-04-22T19:57:50.027Z,19.00
2018-04-22T20:00:16.956Z,18.68
2018-04-22T20:02:44.040Z,18.35
2018-04-22T20:05:10.964Z,18.23
2018-04-22T20:07:38.861Z,18.01
2018-04-22T20:10:05.728Z,17.97
2018-04-22T20:12:32.704Z,17.92
2018-04-22T20:14:59.589Z,17.86
2018-04-22T20:17:26.496Z,17.83
2018-04-22T20:19:53.385Z,17.81
2018-04-22T20:22:20.302Z,17.74
2018-04-22T20:24:47.907Z,17.74
2018-04-22T20:27:14.877Z,17.49
2018-04-22T20:29:41.763Z,17.55
2018-04-22T20:32:09.443Z,17.54
2018-04-22T20:34:36.369Z,17.54
2018-04-22T20:37:04.065Z,17.56
2018-04-22T20:39:30.931Z,17.48
2018-04-22T20:41:57.878Z,17.44
2018-04-22T20:44:24.787Z,17.46
2018-04-22T20:46:51.753Z,17.47
2018-04-22T20:49:18.633Z,17.51
2018-04-22T20:51:45.579Z,17.40
2018-04-22T20:54:12.446Z,17.48
2018-04-22T20:56:40.150Z,17.38
2018-04-22T20:59:07.030Z,17.42
2018-04-22T21:01:33.964Z,17.35
2018-04-22T21:04:00.868Z,17.37
2018-04-22T21:06:27.767Z,17.34
2018-04-22T21:08:54.646Z,17.39
2018-04-22T21:11:21.574Z,17.34
2018-04-22T21:13:48.532Z,17.18
2018-04-22T21:16:16.192Z,17.22
2018-04-22T21:18:43.855Z,17.21
2018-04-22T21:21:11.515Z,17.24
2018-04-22T21:23:39.167Z,17.07
2018-04-22T21:26:06.121Z,17.14
2018-04-22T21:28:33.860Z,17.13
2018-04-22T21:31:00.966Z,17.08
2018-04-22T21:33:27.885Z,17.02
2018-04-22T21:35:55.555Z,16.90
2018-04-22T21:38:23.265Z,16.95
2018-04-22T21:40:50.136Z,16.86
2018-04-22T21:43:17.054Z,16.93
2018-04-22T21:45:43.953Z,16.87
2018-04-22T21:48:11.605Z,16.87
2018-04-22T21:50:38.479Z,16.83
2018-04-22T21:53:05.451Z,16.82
2018-04-22T21:55:32.384Z,16.79
2018-04-22T21:57:59.285Z,16.71
2018-04-22T22:00:26.224Z,16.68
2018-04-22T22:02:53.504Z,16.63
2018-04-22T22:05:21.153Z,16.64
2018-04-22T22:07:48.021Z,16.56
2018-04-22T22:10:14.989Z,16.55
2018-04-22T22:12:41.900Z,16.52
2018-04-22T22:15:09.570Z,16.51
2018-04-22T22:17:37.207Z,16.48
2018-04-22T22:20:04.158Z,16.27
2018-04-22T22:22:31.140Z,16.23
2018-04-22T22:24:58.064Z,16.00
2018-04-22T22:27:25.736Z,16.09
2018-04-22T22:29:53.363Z,16.00
2018-04-22T22:32:21.081Z,15.94
2018-04-22T22:34:48.141Z,15.96
2018-04-22T22:37:15.025Z,16.00
2018-04-22T22:39:41.988Z,15.80
2018-04-22T22:42:08.884Z,15.76
2018-04-22T22:44:35.809Z,15.81
2018-04-22T22:47:02.737Z,15.80
2018-04-22T22:49:30.393Z,15.84
2018-04-22T22:51:58.012Z,15.85
2018-04-22T22:54:24.989Z,15.75
2018-04-22T22:56:51.864Z,15.71
2018-04-22T22:59:18.841Z,15.73
2018-04-22T23:01:45.735Z,15.61
2018-04-22T23:04:13.411Z,15.66
2018-04-22T23:06:41.041Z,15.69
2018-04-22T23:09:07.972Z,15.75
2018-04-22T23:11:34.839Z,15.64
2018-04-22T23:14:01.765Z,15.61
2018-04-22T23:16:28.646Z,15.53
2018-04-22T23:18:55.612Z,15.54
2018-04-22T23:21:22.510Z,15.63
2018-04-22T23:23:50.456Z,15.54
2018-04-22T23:26:17.329Z,15.54
2018-04-22T23:28:44.248Z,15.57
2018-04-22T23:31:11.111Z,15.59
2018-04-22T23:33:38.024Z,15.53
2018-04-22T23:36:30.824Z,15.55
2018-04-22T23:38:58.546Z,15.60
2018-04-22T23:41:25.438Z,15.64
2018-04-22T23:43:52.295Z,15.53
2018-04-22T23:46:20.172Z,15.45
2018-04-22T23:48:47.852Z,15.45
2018-04-22T23:51:14.732Z,15.44
2018-04-22T23:53:41.821Z,15.42
2018-04-22T23:56:09.455Z,15.30
2018-04-22T23:58:36.350Z,15.18
